createdAt,value
2023-02-25T00:00:44.316Z,8.23
2023-02-25T00:03:15.800Z,8.68
2023-02-25T00:05:46.251Z,11.68
2023-02-25T00:08:16.540Z,11.35
2023-02-25T00:10:45.444Z,8.93
2023-02-25T00:13:23.039Z,11.45
2023-02-25T00:15:51.833Z,7.60
2023-02-25T00:18:20.925Z,11.60
2023-02-25T00:20:51.194Z,6.68
2023-02-25T00:23:20.451Z,7.18
2023-02-25T00:25:49.567Z,10.45
2023-02-25T00:28:18.351Z,7.07
2023-02-25T00:30:53.165Z,8.15
2023-02-25T00:33:22.395Z,8.63
2023-02-25T00:35:52.683Z,8.90
2023-02-25T00:38:22.740Z,8.18
2023-02-25T00:40:51.566Z,10.85
2023-02-25T00:43:20.902Z,6.65
2023-02-25T00:45:49.958Z,8.32
2023-02-25T00:48:18.799Z,6.50
2023-02-25T00:50:47.809Z,7.45
2023-02-25T00:53:18.123Z,6.80
2023-02-25T00:55:46.855Z,3.95
2023-02-25T00:58:15.586Z,6.60
2023-02-25T01:00:51.767Z,6.45
2023-02-25T01:03:21.108Z,4.68
2023-02-25T01:05:50.269Z,3.72
2023-02-25T01:08:22.324Z,2.58
2023-02-25T01:10:51.609Z,2.53
2023-02-25T01:13:20.660Z,2.70
2023-02-25T01:15:49.549Z,3.75
2023-02-25T01:18:20.768Z,2.55
2023-02-25T01:20:49.637Z,1.70
2023-02-25T01:23:19.854Z,3.92
2023-02-25T01:25:48.754Z,3.80
2023-02-25T01:28:17.604Z,3.47
2023-02-25T01:30:47.571Z,2.90
2023-02-25T01:33:16.575Z,3.90
2023-02-25T01:35:45.441Z,2.42
2023-02-25T01:38:14.539Z,2.72
2023-02-25T01:40:44.965Z,2.45
2023-02-25T01:43:19.161Z,3.00
2023-02-25T01:45:48.019Z,2.40
2023-02-25T01:48:22.039Z,3.38
2023-02-25T01:50:55.755Z,2.65
2023-02-25T01:53:30.094Z,2.30
2023-02-25T01:56:01.396Z,3.67
2023-02-25T01:58:31.731Z,2.65
2023-02-25T02:01:01.292Z,2.58
2023-02-25T02:03:35.947Z,2.72
2023-02-25T02:06:12.484Z,4.20
2023-02-25T02:08:44.768Z,2.97
2023-02-25T02:11:15.399Z,5.95
2023-02-25T02:13:49.985Z,2.38
2023-02-25T02:17:05.575Z,4.95
2023-02-25T02:19:53.433Z,6.07
2023-02-25T02:22:35.879Z,3.03
2023-02-25T02:25:57.104Z,3.97
2023-02-25T02:29:18.374Z,3.60
2023-02-25T02:32:00.425Z,5.22
2023-02-25T02:34:42.789Z,4.15
2023-02-25T02:37:30.092Z,5.35
2023-02-25T02:40:16.150Z,4.18
2023-02-25T02:42:59.305Z,3.45
2023-02-25T02:45:38.331Z,3.78
2023-02-25T02:48:15.244Z,3.75
2023-02-25T02:50:49.234Z,3.75
2023-02-25T02:53:25.248Z,4.10
2023-02-25T02:55:57.935Z,3.22
2023-02-25T02:58:33.193Z,2.83
2023-02-25T03:01:10.986Z,2.85
2023-02-25T03:03:46.763Z,3.90
2023-02-25T03:06:22.542Z,3.28
2023-02-25T03:08:57.905Z,3.53
2023-02-25T03:11:27.000Z,2.63
2023-02-25T03:13:55.994Z,2.63
2023-02-25T03:16:32.585Z,2.60
2023-02-25T03:19:09.961Z,1.77
2023-02-25T03:21:44.877Z,1.92
2023-02-25T03:24:22.557Z,1.52
2023-02-25T03:26:54.064Z,1.60
2023-02-25T03:29:26.930Z,1.77
2023-02-25T03:32:01.922Z,1.90
2023-02-25T03:34:38.320Z,1.27
2023-02-25T03:37:15.612Z,1.40
2023-02-25T03:39:49.765Z,1.63
2023-02-25T03:42:26.855Z,1.35
2023-02-25T03:45:02.781Z,1.45
2023-02-25T03:47:36.865Z,1.55
2023-02-25T03:50:13.746Z,1.52
2023-02-25T03:52:43.713Z,1.50
2023-02-25T03:55:16.526Z,1.35
2023-02-25T03:57:49.928Z,1.40
2023-02-25T04:00:24.156Z,1.60
2023-02-25T04:02:53.672Z,1.45
2023-02-25T04:05:27.868Z,1.45
2023-02-25T04:07:57.800Z,1.40
2023-02-25T04:10:28.179Z,1.00
2023-02-25T04:12:57.657Z,1.60
2023-02-25T04:15:27.708Z,1.45
2023-02-25T04:17:56.641Z,0.98
2023-02-25T04:20:29.932Z,0.97
2023-02-25T04:22:58.894Z,1.33
2023-02-25T04:25:28.196Z,0.80
2023-02-25T04:27:57.183Z,0.80
2023-02-25T04:30:26.258Z,2.28
2023-02-25T04:32:55.185Z,0.70
2023-02-25T04:35:25.649Z,0.95
2023-02-25T04:37:54.539Z,1.02
2023-02-25T04:40:25.206Z,0.93
2023-02-25T04:42:54.058Z,0.80
2023-02-25T04:45:26.967Z,0.75
2023-02-25T04:47:58.161Z,1.00
2023-02-25T04:50:28.457Z,1.20
2023-02-25T04:52:58.630Z,0.90
2023-02-25T04:55:27.463Z,1.35
2023-02-25T04:57:56.222Z,1.08
2023-02-25T05:00:27.981Z,0.63
2023-02-25T05:02:58.624Z,0.73
2023-02-25T05:05:28.832Z,0.70
2023-02-25T05:07:57.738Z,0.90
2023-02-25T05:10:26.711Z,0.65
2023-02-25T05:12:55.608Z,0.88
2023-02-25T05:15:25.546Z,0.90
2023-02-25T05:17:54.421Z,0.87
2023-02-25T05:20:23.801Z,0.90
2023-02-25T05:22:54.062Z,0.70
2023-02-25T05:25:23.239Z,0.73
2023-02-25T05:27:52.203Z,0.80
2023-02-25T05:30:21.607Z,0.90
2023-02-25T05:32:50.676Z,0.70
2023-02-25T05:35:20.342Z,0.80
2023-02-25T05:37:49.510Z,0.93
2023-02-25T05:40:20.238Z,1.10
2023-02-25T05:42:49.693Z,1.30
2023-02-25T05:45:19.286Z,1.07
2023-02-25T05:47:48.042Z,0.90
2023-02-25T05:50:17.174Z,1.00
2023-02-25T05:52:46.948Z,0.90
2023-02-25T05:55:17.933Z,0.90
2023-02-25T05:57:48.154Z,1.00
2023-02-25T06:00:21.501Z,0.95
2023-02-25T06:02:50.335Z,0.70
2023-02-25T06:05:19.457Z,0.60
2023-02-25T06:07:48.303Z,0.77
2023-02-25T06:10:17.103Z,1.00
2023-02-25T06:12:47.192Z,1.07
2023-02-25T06:15:16.158Z,0.70
2023-02-25T06:17:45.305Z,0.53
2023-02-25T06:20:16.662Z,0.70
2023-02-25T06:22:45.639Z,0.60
2023-02-25T06:25:14.351Z,0.70
2023-02-25T06:27:43.079Z,0.80
2023-02-25T06:30:14.783Z,0.80
2023-02-25T06:32:43.814Z,0.85
2023-02-25T06:35:12.666Z,0.60
2023-02-25T06:37:41.608Z,0.75
2023-02-25T06:40:14.493Z,0.68
2023-02-25T06:42:43.422Z,0.60
2023-02-25T06:45:14.116Z,0.57
2023-02-25T06:47:43.222Z,0.67
2023-02-25T06:50:13.622Z,0.60
2023-02-25T06:52:42.545Z,0.70
2023-02-25T06:55:12.635Z,0.32
2023-02-25T06:57:41.547Z,0.52
2023-02-25T07:00:13.970Z,0.50
2023-02-25T07:02:42.914Z,0.70
2023-02-25T07:05:11.982Z,0.68
2023-02-25T07:07:40.890Z,0.30
2023-02-25T07:10:12.715Z,0.40
2023-02-25T07:12:41.545Z,0.47
2023-02-25T07:15:12.936Z,0.98
2023-02-25T07:17:41.739Z,0.30
2023-02-25T07:20:12.572Z,0.50
2023-02-25T07:22:42.124Z,0.30
2023-02-25T07:25:12.833Z,0.43
2023-02-25T07:27:44.502Z,2.08
2023-02-25T07:30:16.281Z,0.90
2023-02-25T07:32:45.777Z,0.80
2023-02-25T07:35:15.296Z,0.73
2023-02-25T07:37:44.270Z,0.70
2023-02-25T07:40:14.295Z,1.35
2023-02-25T07:42:43.249Z,1.10
2023-02-25T07:45:14.702Z,0.70
2023-02-25T07:47:43.574Z,0.50
2023-02-25T07:50:14.172Z,0.70
2023-02-25T07:52:43.055Z,0.50
2023-02-25T07:55:12.935Z,0.88
2023-02-25T07:57:41.623Z,1.70
2023-02-25T08:00:12.275Z,1.80
2023-02-25T08:02:43.398Z,0.90
2023-02-25T08:05:13.102Z,1.00
2023-02-25T08:07:41.916Z,0.68
2023-02-25T08:10:12.458Z,0.52
2023-02-25T08:12:41.206Z,0.50
2023-02-25T08:15:10.931Z,0.35
2023-02-25T08:17:41.108Z,0.50
2023-02-25T08:20:11.605Z,0.73
2023-02-25T08:22:40.433Z,0.82
2023-02-25T08:25:10.141Z,0.40
2023-02-25T08:27:39.068Z,0.35
2023-02-25T08:30:09.710Z,0.73
2023-02-25T08:32:38.831Z,0.65
2023-02-25T08:35:10.746Z,0.40
2023-02-25T08:37:39.506Z,0.35
2023-02-25T08:40:10.874Z,0.60
2023-02-25T08:42:39.630Z,0.77
2023-02-25T08:45:10.344Z,3.08
2023-02-25T08:47:39.285Z,0.40
2023-02-25T08:50:11.227Z,0.55
2023-02-25T08:52:42.093Z,0.63
2023-02-25T08:55:14.946Z,0.85
2023-02-25T08:57:44.542Z,0.38
2023-02-25T09:00:16.346Z,0.70
2023-02-25T09:02:45.911Z,0.57
2023-02-25T09:05:16.028Z,0.60
2023-02-25T09:07:44.793Z,0.45
2023-02-25T09:10:15.137Z,0.50
2023-02-25T09:12:44.568Z,0.47
2023-02-25T09:15:14.781Z,0.50
2023-02-25T09:17:43.579Z,0.57
2023-02-25T09:20:13.167Z,0.47
2023-02-25T09:22:43.457Z,1.17
2023-02-25T09:25:13.641Z,1.00
2023-02-25T09:27:42.380Z,0.93
2023-02-25T09:30:12.603Z,0.82
2023-02-25T09:32:41.506Z,1.85
2023-02-25T09:35:12.591Z,0.80
2023-02-25T09:37:42.765Z,0.77
2023-02-25T09:40:19.515Z,1.27
2023-02-25T09:43:06.470Z,0.55
2023-02-25T09:45:37.744Z,1.48
2023-02-25T09:48:18.069Z,2.38
2023-02-25T09:50:52.516Z,3.13
2023-02-25T09:53:31.209Z,0.63
2023-02-25T09:56:00.111Z,1.27
2023-02-25T09:58:37.505Z,0.45
2023-02-25T10:01:18.337Z,0.95
2023-02-25T10:03:59.447Z,0.60
2023-02-25T10:06:35.285Z,0.57
2023-02-25T10:09:20.154Z,0.65
2023-02-25T10:11:55.122Z,1.58
2023-02-25T10:15:10.586Z,0.77
2023-02-25T10:17:50.907Z,0.50
2023-02-25T10:20:44.771Z,1.02
2023-02-25T10:23:35.237Z,1.60
2023-02-25T10:26:18.099Z,0.60
2023-02-25T10:28:51.987Z,0.90
2023-02-25T10:31:24.167Z,1.48
2023-02-25T10:34:06.546Z,1.02
2023-02-25T10:36:44.951Z,2.40
2023-02-25T10:39:13.766Z,0.68
2023-02-25T10:41:44.259Z,0.82
2023-02-25T10:44:14.565Z,23.70
2023-02-25T10:46:54.604Z,1.10
2023-02-25T10:49:26.819Z,0.47
2023-02-25T10:52:04.121Z,3.30
2023-02-25T10:54:34.961Z,2.97
2023-02-25T10:57:15.954Z,1.27
2023-02-25T10:59:46.959Z,0.40
2023-02-25T11:02:25.990Z,3.58
2023-02-25T11:04:56.643Z,0.40
2023-02-25T11:07:36.234Z,1.23
2023-02-25T11:10:18.311Z,0.93
2023-02-25T11:12:53.104Z,0.63
2023-02-25T11:15:46.112Z,0.40
2023-02-25T11:18:23.712Z,3.33
2023-02-25T11:20:57.485Z,0.52
2023-02-25T11:23:35.014Z,1.60
2023-02-25T11:26:06.689Z,0.98
2023-02-25T11:28:47.276Z,0.77
2023-02-25T11:31:23.515Z,0.40
2023-02-25T11:33:59.280Z,0.98
2023-02-25T11:36:35.745Z,0.47
2023-02-25T11:39:19.114Z,0.40
2023-02-25T11:41:51.638Z,0.90
2023-02-25T11:44:30.122Z,1.20
2023-02-25T11:47:09.155Z,1.52
2023-02-25T11:50:06.585Z,0.93
2023-02-25T11:52:45.148Z,0.60
2023-02-25T11:55:33.777Z,0.95
2023-02-25T11:58:17.695Z,3.13
2023-02-25T12:00:59.745Z,0.60
2023-02-25T12:04:03.657Z,0.70
2023-02-25T12:07:08.203Z,0.52
2023-02-25T12:10:33.674Z,1.35
2023-02-25T12:13:47.167Z,1.17
2023-02-25T12:17:17.437Z,0.60
2023-02-25T12:20:39.185Z,1.02
2023-02-25T12:24:01.490Z,0.50
2023-02-25T12:26:49.331Z,0.80
2023-02-25T12:29:49.135Z,0.60
2023-02-25T12:32:46.683Z,0.75
2023-02-25T12:35:50.433Z,0.47
2023-02-25T12:39:12.416Z,0.50
2023-02-25T12:41:48.246Z,0.45
2023-02-25T12:45:13.718Z,1.55
2023-02-25T12:48:16.912Z,1.40
2023-02-25T12:51:28.962Z,1.13
2023-02-25T12:54:13.497Z,0.40
2023-02-25T12:57:10.193Z,0.47
2023-02-25T13:00:18.442Z,1.25
2023-02-25T13:03:21.982Z,1.60
2023-02-25T13:06:23.206Z,0.40
2023-02-25T13:09:36.677Z,0.68
2023-02-25T13:12:30.209Z,0.45
2023-02-25T13:15:14.266Z,0.77
2023-02-25T13:18:20.293Z,0.90
2023-02-25T13:21:22.269Z,0.40
2023-02-25T13:24:15.961Z,0.85
2023-02-25T13:27:24.443Z,0.70
2023-02-25T13:30:16.750Z,1.02
2023-02-25T13:33:04.048Z,0.90
2023-02-25T13:35:54.823Z,1.13
2023-02-25T13:38:45.159Z,1.38
2023-02-25T13:41:32.922Z,1.80
2023-02-25T13:44:47.093Z,1.90
2023-02-25T13:47:43.818Z,1.45
2023-02-25T13:50:48.110Z,0.90
2023-02-25T13:53:59.870Z,0.98
2023-02-25T13:57:08.655Z,1.50
2023-02-25T14:00:14.720Z,1.23
2023-02-25T14:03:16.260Z,1.15
2023-02-25T14:06:16.143Z,0.98
2023-02-25T14:09:12.470Z,1.02
2023-02-25T14:12:11.302Z,0.98
2023-02-25T14:15:21.854Z,0.90
2023-02-25T14:18:44.439Z,1.08
2023-02-25T14:22:00.299Z,1.23
2023-02-25T14:24:42.301Z,1.23
2023-02-25T14:27:26.495Z,1.13
2023-02-25T14:30:16.092Z,0.85
2023-02-25T14:33:02.078Z,1.23
2023-02-25T14:35:55.290Z,1.02
2023-02-25T14:38:53.494Z,0.95
2023-02-25T14:41:45.910Z,2.22
2023-02-25T14:44:26.050Z,12.15
2023-02-25T14:47:02.777Z,2.83
2023-02-25T14:49:38.852Z,1.30
2023-02-25T14:52:52.316Z,2.80
2023-02-25T14:56:08.728Z,2.90
2023-02-25T14:59:21.784Z,1.20
2023-02-25T15:02:27.295Z,1.40
2023-02-25T15:05:50.679Z,2.35
2023-02-25T15:08:44.648Z,0.98
2023-02-25T15:11:44.167Z,1.00
2023-02-25T15:15:08.709Z,1.67
2023-02-25T15:18:29.569Z,1.30
2023-02-25T15:20:59.530Z,1.52
2023-02-25T15:23:52.536Z,0.93
2023-02-25T15:26:27.644Z,1.70
2023-02-25T15:28:57.593Z,1.88
2023-02-25T15:31:31.381Z,0.88
2023-02-25T15:34:35.896Z,1.95
2023-02-25T15:37:25.192Z,1.20
2023-02-25T15:39:56.809Z,1.38
2023-02-25T15:42:53.130Z,1.00
2023-02-25T15:45:47.310Z,1.50
2023-02-25T15:48:35.999Z,0.90
2023-02-25T15:51:10.519Z,2.15
2023-02-25T15:53:45.111Z,1.70
2023-02-25T15:56:46.015Z,1.67
2023-02-25T15:59:45.512Z,1.05
2023-02-25T16:02:42.660Z,1.52
2023-02-25T16:05:29.536Z,1.40
2023-02-25T16:08:17.572Z,1.00
2023-02-25T16:10:51.545Z,1.27
2023-02-25T16:13:30.519Z,1.77
2023-02-25T16:16:04.400Z,1.42
2023-02-25T16:18:40.304Z,1.33
2023-02-25T16:21:21.835Z,2.03
2023-02-25T16:23:51.098Z,2.33
2023-02-25T16:26:35.534Z,1.50
2023-02-25T16:29:27.259Z,2.33
2023-02-25T16:32:05.946Z,1.40
2023-02-25T16:34:46.590Z,2.00
2023-02-25T16:37:27.459Z,1.52
2023-02-25T16:39:56.655Z,1.25
2023-02-25T16:42:25.964Z,3.60
2023-02-25T16:45:02.229Z,1.30
2023-02-25T16:47:36.736Z,1.33
2023-02-25T16:50:16.033Z,1.23
2023-02-25T16:52:51.527Z,1.13
2023-02-25T16:55:24.928Z,1.33
2023-02-25T16:58:09.017Z,1.35
2023-02-25T17:00:38.555Z,1.20
2023-02-25T17:03:13.000Z,1.33
2023-02-25T17:05:42.092Z,1.38
2023-02-25T17:08:18.289Z,1.48
2023-02-25T17:10:50.829Z,0.98
2023-02-25T17:13:29.210Z,0.90
2023-02-25T17:16:00.829Z,1.13
2023-02-25T17:18:34.076Z,1.10
2023-02-25T17:21:07.037Z,1.13
2023-02-25T17:23:41.597Z,1.63
2023-02-25T17:26:15.110Z,3.08
2023-02-25T17:28:46.928Z,1.40
2023-02-25T17:31:19.571Z,0.90
2023-02-25T17:33:53.973Z,1.02
2023-02-25T17:36:27.050Z,1.15
2023-02-25T17:39:00.915Z,0.65
2023-02-25T17:41:30.248Z,0.85
2023-02-25T17:43:59.135Z,0.85
2023-02-25T17:46:36.448Z,0.65
2023-02-25T17:49:21.386Z,0.73
2023-02-25T17:51:56.844Z,0.73
2023-02-25T17:54:28.415Z,0.83
2023-02-25T17:57:00.538Z,0.85
2023-02-25T17:59:38.884Z,0.82
2023-02-25T18:02:31.935Z,1.17
2023-02-25T18:05:27.125Z,0.70
2023-02-25T18:08:19.516Z,1.13
2023-02-25T18:10:58.509Z,0.77
2023-02-25T18:13:35.680Z,0.98
2023-02-25T18:16:44.781Z,1.50
2023-02-25T18:19:40.638Z,1.37
2023-02-25T18:22:29.452Z,1.35
2023-02-25T18:25:01.505Z,1.03
2023-02-25T18:27:32.472Z,1.20
2023-02-25T18:30:18.398Z,1.47
2023-02-25T18:32:47.880Z,1.00
2023-02-25T18:35:18.154Z,1.40
2023-02-25T18:37:52.152Z,2.67
2023-02-25T18:40:28.772Z,3.00
2023-02-25T18:42:57.905Z,3.97
2023-02-25T18:45:30.139Z,1.57
2023-02-25T18:48:00.405Z,3.67
2023-02-25T18:50:32.232Z,2.00
2023-02-25T18:53:02.865Z,1.67
2023-02-25T18:55:34.191Z,1.70
2023-02-25T18:58:04.900Z,1.10
2023-02-25T19:00:33.954Z,2.33
2023-02-25T19:03:05.555Z,1.40
2023-02-25T19:05:34.575Z,1.43
2023-02-25T19:08:07.634Z,1.73
2023-02-25T19:10:36.358Z,2.43
2023-02-25T19:13:09.299Z,1.27
2023-02-25T19:15:38.103Z,2.30
2023-02-25T19:18:07.095Z,1.13
2023-02-25T19:20:35.928Z,2.73
2023-02-25T19:23:06.239Z,1.70
2023-02-25T19:25:37.490Z,1.70
2023-02-25T19:28:08.854Z,4.30
2023-02-25T19:30:42.598Z,2.67
2023-02-25T19:33:14.492Z,1.80
2023-02-25T19:35:44.669Z,4.37
2023-02-25T19:38:18.827Z,2.00
2023-02-25T19:40:49.452Z,2.30
2023-02-25T19:43:19.518Z,2.77
2023-02-25T19:45:50.504Z,2.13
2023-02-25T19:48:19.347Z,6.27
2023-02-25T19:50:48.423Z,2.47
2023-02-25T19:53:19.148Z,2.30
2023-02-25T19:55:47.986Z,3.23
2023-02-25T19:58:16.805Z,2.23
2023-02-25T20:00:46.971Z,3.10
2023-02-25T20:03:16.777Z,3.93
2023-02-25T20:05:45.899Z,3.03
2023-02-25T20:08:14.900Z,2.17
2023-02-25T20:10:45.943Z,2.27
2023-02-25T20:13:15.043Z,4.17
2023-02-25T20:15:43.899Z,3.93
2023-02-25T20:18:12.824Z,4.13
2023-02-25T20:20:43.567Z,2.53
2023-02-25T20:23:12.405Z,1.87
2023-02-25T20:25:41.190Z,2.10
2023-02-25T20:28:11.817Z,2.10
2023-02-25T20:30:40.667Z,5.17
2023-02-25T20:33:09.544Z,3.00
2023-02-25T20:35:39.186Z,3.10
2023-02-25T20:38:23.816Z,2.70
2023-02-25T20:40:53.006Z,2.90
2023-02-25T20:43:24.118Z,4.40
2023-02-25T20:45:53.273Z,3.67
2023-02-25T20:48:30.522Z,9.10
2023-02-25T20:51:00.325Z,2.87
2023-02-25T20:53:29.520Z,11.87
2023-02-25T20:55:59.665Z,7.17
2023-02-25T20:58:30.214Z,4.47
2023-02-25T21:00:59.021Z,2.73
2023-02-25T21:03:27.907Z,1.70
2023-02-25T21:05:56.697Z,2.40
2023-02-25T21:08:25.457Z,5.10
2023-02-25T21:10:54.214Z,2.20
2023-02-25T21:13:23.021Z,2.33
2023-02-25T21:15:53.296Z,2.00
2023-02-25T21:18:22.093Z,4.63
2023-02-25T21:20:50.828Z,2.67
2023-02-25T21:23:19.731Z,4.23
2023-02-25T21:25:48.597Z,3.90
2023-02-25T21:28:17.576Z,8.57
2023-02-25T21:30:46.407Z,2.77
2023-02-25T21:33:17.150Z,1.90
2023-02-25T21:35:46.654Z,1.87
2023-02-25T21:38:15.458Z,6.93
2023-02-25T21:40:44.260Z,8.17
2023-02-25T21:43:13.211Z,1.90
2023-02-25T21:45:43.733Z,1.93
2023-02-25T21:48:12.455Z,2.27
2023-02-25T21:50:46.768Z,2.00
2023-02-25T21:53:15.760Z,3.40
2023-02-25T21:55:45.530Z,2.37
2023-02-25T21:58:15.428Z,4.13
2023-02-25T22:00:44.247Z,5.63
2023-02-25T22:03:13.085Z,3.70
2023-02-25T22:05:46.924Z,2.30
2023-02-25T22:08:16.466Z,1.73
2023-02-25T22:10:45.210Z,2.50
2023-02-25T22:13:13.980Z,2.30
2023-02-25T22:15:48.319Z,2.70
2023-02-25T22:18:17.138Z,2.70
2023-02-25T22:20:47.419Z,2.20
2023-02-25T22:23:16.416Z,2.03
2023-02-25T22:25:45.397Z,2.43
2023-02-25T22:28:14.218Z,2.03
2023-02-25T22:30:48.187Z,2.00
2023-02-25T22:33:17.245Z,1.70
2023-02-25T22:35:56.693Z,2.47
2023-02-25T22:38:27.881Z,1.97
2023-02-25T22:40:56.697Z,2.30
2023-02-25T22:43:26.024Z,2.00
2023-02-25T22:46:04.949Z,2.10
2023-02-25T22:48:34.069Z,2.10
2023-02-25T22:51:04.580Z,2.10
2023-02-25T22:53:33.372Z,2.30
2023-02-25T22:56:03.294Z,2.53
2023-02-25T22:58:32.604Z,3.80
2023-02-25T23:01:01.478Z,2.30
2023-02-25T23:03:30.777Z,2.20
2023-02-25T23:05:59.953Z,2.23
2023-02-25T23:08:30.375Z,2.03
2023-02-25T23:11:10.861Z,2.23
2023-02-25T23:13:46.109Z,2.23
2023-02-25T23:16:16.358Z,2.73
2023-02-25T23:18:46.211Z,2.50
2023-02-25T23:21:19.289Z,2.47
2023-02-25T23:23:51.882Z,2.20
2023-02-25T23:26:25.688Z,2.47
2023-02-25T23:28:57.203Z,2.67
2023-02-25T23:31:28.957Z,2.80
2023-02-25T23:33:59.053Z,2.70
2023-02-25T23:36:28.722Z,2.93
2023-02-25T23:39:02.286Z,2.40
2023-02-25T23:41:31.761Z,2.80
2023-02-25T23:44:02.018Z,2.43
2023-02-25T23:46:32.927Z,2.40
2023-02-25T23:49:05.653Z,2.60
2023-02-25T23:51:35.554Z,6.90
2023-02-25T23:54:07.578Z,3.00
2023-02-25T23:56:36.630Z,2.83
2023-02-25T23:59:05.470Z,2.53
